sensor_id;sensor_type;location;lat;lon;timestamp;temperature;humidity
15426;DHT22;7812;50.072;7.036;2022-12-11T00:01:59;-1.80;99.90
15426;DHT22;7812;50.072;7.036;2022-12-11T00:04:24;-1.90;99.90
15426;DHT22;7812;50.072;7.036;2022-12-11T00:06:51;-1.60;99.90
15426;DHT22;7812;50.072;7.036;2022-12-11T00:09:18;-1.60;99.90
15426;DHT22;7812;50.072;7.036;2022-12-11T00:11:44;-1.40;99.90
15426;DHT22;7812;50.072;7.036;2022-12-11T00:14:10;-1.30;99.90
15426;DHT22;7812;50.072;7.036;2022-12-11T00:16:36;-1.20;99.90
15426;DHT22;7812;50.072;7.036;2022-12-11T00:19:03;-1.10;99.90
15426;DHT22;7812;50.072;7.036;2022-12-11T00:21:28;-1.10;99.90
15426;DHT22;7812;50.072;7.036;2022-12-11T00:23:54;-1.20;99.90
15426;DHT22;7812;50.072;7.036;2022-12-11T00:26:20;-1.50;99.90
15426;DHT22;7812;50.072;7.036;2022-12-11T00:28:46;-1.40;99.90
15426;DHT22;7812;50.072;7.036;2022-12-11T00:31:14;-1.30;99.90
15426;DHT22;7812;50.072;7.036;2022-12-11T00:33:41;-1.30;99.90
15426;DHT22;7812;50.072;7.036;2022-12-11T00:36:16;-1.70;99.90
15426;DHT22;7812;50.072;7.036;2022-12-11T00:38:42;-1.50;99.90
15426;DHT22;7812;50.072;7.036;2022-12-11T00:41:08;-1.90;99.90
15426;DHT22;7812;50.072;7.036;2022-12-11T00:43:34;-1.80;99.90
15426;DHT22;7812;50.072;7.036;2022-12-11T00:45:59;-1.70;99.90
15426;DHT22;7812;50.072;7.036;2022-12-11T00:48:25;-1.50;99.90
15426;DHT22;7812;50.072;7.036;2022-12-11T00:50:51;-1.40;99.90
15426;DHT22;7812;50.072;7.036;2022-12-11T00:53:17;-1.10;99.90
15426;DHT22;7812;50.072;7.036;2022-12-11T00:55:43;-1.00;99.90
15426;DHT22;7812;50.072;7.036;2022-12-11T00:58:09;-0.90;99.90
15426;DHT22;7812;50.072;7.036;2022-12-11T01:00:36;-0.90;99.90
15426;DHT22;7812;50.072;7.036;2022-12-11T01:03:02;-1.00;99.90
15426;DHT22;7812;50.072;7.036;2022-12-11T01:05:28;-1.30;99.90
15426;DHT22;7812;50.072;7.036;2022-12-11T01:07:54;-1.20;99.90
15426;DHT22;7812;50.072;7.036;2022-12-11T01:10:19;-1.00;99.90
15426;DHT22;7812;50.072;7.036;2022-12-11T01:12:55;-0.90;99.90
15426;DHT22;7812;50.072;7.036;2022-12-11T01:15:24;-1.00;99.90
15426;DHT22;7812;50.072;7.036;2022-12-11T01:17:50;-1.20;99.90
15426;DHT22;7812;50.072;7.036;2022-12-11T01:20:17;-1.00;99.90
15426;DHT22;7812;50.072;7.036;2022-12-11T01:22:43;-0.90;99.90
15426;DHT22;7812;50.072;7.036;2022-12-11T01:25:09;-0.90;99.90
15426;DHT22;7812;50.072;7.036;2022-12-11T01:27:36;-0.80;99.90
15426;DHT22;7812;50.072;7.036;2022-12-11T01:30:06;-0.70;99.90
15426;DHT22;7812;50.072;7.036;2022-12-11T01:32:32;-0.90;99.90
15426;DHT22;7812;50.072;7.036;2022-12-11T01:34:58;-1.10;99.90
15426;DHT22;7812;50.072;7.036;2022-12-11T01:37:24;-0.80;99.90
15426;DHT22;7812;50.072;7.036;2022-12-11T01:39:49;-0.70;99.90
15426;DHT22;7812;50.072;7.036;2022-12-11T01:42:19;-0.50;99.90
15426;DHT22;7812;50.072;7.036;2022-12-11T01:47:10;-0.40;99.90
15426;DHT22;7812;50.072;7.036;2022-12-11T01:49:37;-0.40;99.90
15426;DHT22;7812;50.072;7.036;2022-12-11T01:52:20;-0.40;99.90
15426;DHT22;7812;50.072;7.036;2022-12-11T01:54:47;-0.40;99.90
15426;DHT22;7812;50.072;7.036;2022-12-11T01:57:14;-0.50;99.90
15426;DHT22;7812;50.072;7.036;2022-12-11T01:59:43;-0.50;99.90
15426;DHT22;7812;50.072;7.036;2022-12-11T02:02:16;-0.60;99.90
15426;DHT22;7812;50.072;7.036;2022-12-11T02:04:44;-0.90;99.90
15426;DHT22;7812;50.072;7.036;2022-12-11T02:07:10;-1.30;99.90
15426;DHT22;7812;50.072;7.036;2022-12-11T02:09:37;-1.20;99.90
15426;DHT22;7812;50.072;7.036;2022-12-11T02:20:33;-0.50;99.90
15426;DHT22;7812;50.072;7.036;2022-12-11T02:28:46;-0.70;99.90
15426;DHT22;7812;50.072;7.036;2022-12-11T02:36:28;-0.40;99.90
15426;DHT22;7812;50.072;7.036;2022-12-11T02:38:57;-0.40;99.90
15426;DHT22;7812;50.072;7.036;2022-12-11T02:41:26;-0.50;99.90
15426;DHT22;7812;50.072;7.036;2022-12-11T02:43:54;-0.50;99.90
15426;DHT22;7812;50.072;7.036;2022-12-11T02:46:21;-0.80;99.90
15426;DHT22;7812;50.072;7.036;2022-12-11T02:48:48;-0.90;99.90
15426;DHT22;7812;50.072;7.036;2022-12-11T02:51:18;-1.00;99.90
15426;DHT22;7812;50.072;7.036;2022-12-11T02:53:46;-0.90;99.90
15426;DHT22;7812;50.072;7.036;2022-12-11T02:56:21;-0.80;99.90
15426;DHT22;7812;50.072;7.036;2022-12-11T02:58:53;-0.70;99.90
15426;DHT22;7812;50.072;7.036;2022-12-11T03:01:20;-0.70;99.90
15426;DHT22;7812;50.072;7.036;2022-12-11T03:03:46;-1.00;99.90
15426;DHT22;7812;50.072;7.036;2022-12-11T03:06:16;-1.00;99.90
15426;DHT22;7812;50.072;7.036;2022-12-11T03:08:43;-1.10;99.90
15426;DHT22;7812;50.072;7.036;2022-12-11T03:11:12;-1.10;99.90
15426;DHT22;7812;50.072;7.036;2022-12-11T03:13:39;-1.10;99.90
15426;DHT22;7812;50.072;7.036;2022-12-11T03:22:01;-1.30;99.90
15426;DHT22;7812;50.072;7.036;2022-12-11T03:24:37;-1.10;99.90
15426;DHT22;7812;50.072;7.036;2022-12-11T03:29:41;-0.70;99.90
15426;DHT22;7812;50.072;7.036;2022-12-11T03:32:18;-0.70;99.90
15426;DHT22;7812;50.072;7.036;2022-12-11T03:34:54;-1.30;99.90
15426;DHT22;7812;50.072;7.036;2022-12-11T03:37:22;-1.40;99.90
15426;DHT22;7812;50.072;7.036;2022-12-11T03:39:51;-1.40;99.90
15426;DHT22;7812;50.072;7.036;2022-12-11T03:42:19;-1.50;99.90
15426;DHT22;7812;50.072;7.036;2022-12-11T03:44:48;-1.30;99.90
15426;DHT22;7812;50.072;7.036;2022-12-11T03:47:19;-1.20;99.90
15426;DHT22;7812;50.072;7.036;2022-12-11T03:49:47;-1.00;99.90
15426;DHT22;7812;50.072;7.036;2022-12-11T03:52:14;-0.80;99.90
15426;DHT22;7812;50.072;7.036;2022-12-11T03:54:41;-0.60;99.90
15426;DHT22;7812;50.072;7.036;2022-12-11T03:57:10;-0.60;99.90
15426;DHT22;7812;50.072;7.036;2022-12-11T03:59:38;-0.80;99.90
15426;DHT22;7812;50.072;7.036;2022-12-11T04:02:03;-0.80;99.90
15426;DHT22;7812;50.072;7.036;2022-12-11T04:04:40;-0.70;99.90
15426;DHT22;7812;50.072;7.036;2022-12-11T04:07:06;-0.50;99.90
15426;DHT22;7812;50.072;7.036;2022-12-11T04:09:33;-0.40;99.90
15426;DHT22;7812;50.072;7.036;2022-12-11T04:11:58;-0.20;99.90
15426;DHT22;7812;50.072;7.036;2022-12-11T04:14:25;-0.10;99.90
15426;DHT22;7812;50.072;7.036;2022-12-11T04:17:09;-0.40;99.90
15426;DHT22;7812;50.072;7.036;2022-12-11T04:19:35;-0.90;99.90
15426;DHT22;7812;50.072;7.036;2022-12-11T04:22:19;-0.90;99.90
15426;DHT22;7812;50.072;7.036;2022-12-11T04:25:05;-0.70;99.90
15426;DHT22;7812;50.072;7.036;2022-12-11T04:27:31;-0.60;99.90
15426;DHT22;7812;50.072;7.036;2022-12-11T04:30:23;-0.40;99.90
15426;DHT22;7812;50.072;7.036;2022-12-11T04:32:49;-0.60;99.90
15426;DHT22;7812;50.072;7.036;2022-12-11T04:35:15;-0.90;99.90
15426;DHT22;7812;50.072;7.036;2022-12-11T04:37:41;-1.20;99.90
15426;DHT22;7812;50.072;7.036;2022-12-11T04:40:10;-1.50;99.90
15426;DHT22;7812;50.072;7.036;2022-12-11T04:42:36;-1.30;99.90
15426;DHT22;7812;50.072;7.036;2022-12-11T04:45:02;-0.90;99.90
15426;DHT22;7812;50.072;7.036;2022-12-11T04:47:28;-0.70;99.90
15426;DHT22;7812;50.072;7.036;2022-12-11T04:49:53;-0.50;99.90
15426;DHT22;7812;50.072;7.036;2022-12-11T04:52:19;-0.80;99.90
15426;DHT22;7812;50.072;7.036;2022-12-11T04:54:45;-1.00;99.90
15426;DHT22;7812;50.072;7.036;2022-12-11T04:57:11;-1.40;99.90
15426;DHT22;7812;50.072;7.036;2022-12-11T04:59:37;-1.30;99.90
15426;DHT22;7812;50.072;7.036;2022-12-11T05:02:03;-1.20;99.90
15426;DHT22;7812;50.072;7.036;2022-12-11T05:04:34;-0.80;99.90
15426;DHT22;7812;50.072;7.036;2022-12-11T05:07:00;-0.70;99.90
15426;DHT22;7812;50.072;7.036;2022-12-11T05:09:27;-0.50;99.90
15426;DHT22;7812;50.072;7.036;2022-12-11T05:11:53;-0.30;99.90
15426;DHT22;7812;50.072;7.036;2022-12-11T05:14:19;-0.70;99.90
15426;DHT22;7812;50.072;7.036;2022-12-11T05:16:44;-1.00;99.90
15426;DHT22;7812;50.072;7.036;2022-12-11T05:19:10;-1.10;99.90
15426;DHT22;7812;50.072;7.036;2022-12-11T05:21:36;-1.20;99.90
15426;DHT22;7812;50.072;7.036;2022-12-11T05:24:02;-1.10;99.90
15426;DHT22;7812;50.072;7.036;2022-12-11T05:26:28;-0.80;99.90
15426;DHT22;7812;50.072;7.036;2022-12-11T05:28:53;-0.50;99.90
15426;DHT22;7812;50.072;7.036;2022-12-11T05:31:22;-0.50;99.90
15426;DHT22;7812;50.072;7.036;2022-12-11T05:33:48;-0.70;99.90
15426;DHT22;7812;50.072;7.036;2022-12-11T05:36:23;-0.70;99.90
15426;DHT22;7812;50.072;7.036;2022-12-11T05:38:50;-0.40;99.90
15426;DHT22;7812;50.072;7.036;2022-12-11T05:41:18;-0.20;99.90
15426;DHT22;7812;50.072;7.036;2022-12-11T05:43:44;0.00;99.90
15426;DHT22;7812;50.072;7.036;2022-12-11T05:46:21;-0.10;99.90
15426;DHT22;7812;50.072;7.036;2022-12-11T05:48:50;-0.20;99.90
15426;DHT22;7812;50.072;7.036;2022-12-11T05:51:17;-0.40;99.90
15426;DHT22;7812;50.072;7.036;2022-12-11T05:53:45;-0.40;99.90
15426;DHT22;7812;50.072;7.036;2022-12-11T05:56:14;-0.30;99.90
15426;DHT22;7812;50.072;7.036;2022-12-11T05:58:41;-0.10;99.90
15426;DHT22;7812;50.072;7.036;2022-12-11T06:01:09;-0.10;99.90
15426;DHT22;7812;50.072;7.036;2022-12-11T06:03:35;-0.10;99.90
15426;DHT22;7812;50.072;7.036;2022-12-11T06:06:05;0.10;99.90
15426;DHT22;7812;50.072;7.036;2022-12-11T06:08:31;0.00;99.90
15426;DHT22;7812;50.072;7.036;2022-12-11T06:10:59;0.00;99.90
15426;DHT22;7812;50.072;7.036;2022-12-11T06:13:25;0.00;99.90
15426;DHT22;7812;50.072;7.036;2022-12-11T06:15:51;0.00;99.90
15426;DHT22;7812;50.072;7.036;2022-12-11T06:18:16;0.00;99.90
15426;DHT22;7812;50.072;7.036;2022-12-11T06:20:42;-0.10;99.90
15426;DHT22;7812;50.072;7.036;2022-12-11T06:23:08;-0.20;99.90
15426;DHT22;7812;50.072;7.036;2022-12-11T06:25:33;-0.10;99.90
15426;DHT22;7812;50.072;7.036;2022-12-11T06:27:59;0.00;99.90
15426;DHT22;7812;50.072;7.036;2022-12-11T06:30:25;0.20;99.90
15426;DHT22;7812;50.072;7.036;2022-12-11T06:32:51;0.30;99.90
15426;DHT22;7812;50.072;7.036;2022-12-11T06:35:16;0.30;99.90
15426;DHT22;7812;50.072;7.036;2022-12-11T06:37:42;0.30;99.90
15426;DHT22;7812;50.072;7.036;2022-12-11T06:40:09;0.20;99.90
15426;DHT22;7812;50.072;7.036;2022-12-11T06:42:37;0.30;99.90
15426;DHT22;7812;50.072;7.036;2022-12-11T06:45:03;0.30;99.90
15426;DHT22;7812;50.072;7.036;2022-12-11T06:47:29;0.40;99.90
15426;DHT22;7812;50.072;7.036;2022-12-11T06:49:55;0.40;99.90
15426;DHT22;7812;50.072;7.036;2022-12-11T06:52:22;0.30;99.90
15426;DHT22;7812;50.072;7.036;2022-12-11T06:54:48;0.20;99.90
15426;DHT22;7812;50.072;7.036;2022-12-11T06:57:15;0.00;99.90
15426;DHT22;7812;50.072;7.036;2022-12-11T06:59:41;0.10;99.90
15426;DHT22;7812;50.072;7.036;2022-12-11T07:02:08;0.10;99.90
15426;DHT22;7812;50.072;7.036;2022-12-11T07:04:34;0.10;99.90
15426;DHT22;7812;50.072;7.036;2022-12-11T07:07:00;0.20;99.90
15426;DHT22;7812;50.072;7.036;2022-12-11T07:09:25;0.20;99.90
15426;DHT22;7812;50.072;7.036;2022-12-11T07:11:51;0.20;99.90
15426;DHT22;7812;50.072;7.036;2022-12-11T07:14:18;0.20;99.90
15426;DHT22;7812;50.072;7.036;2022-12-11T07:16:44;0.20;99.90
15426;DHT22;7812;50.072;7.036;2022-12-11T07:19:10;0.10;99.90
15426;DHT22;7812;50.072;7.036;2022-12-11T07:21:36;0.10;99.90
15426;DHT22;7812;50.072;7.036;2022-12-11T07:24:02;0.10;99.90
15426;DHT22;7812;50.072;7.036;2022-12-11T07:26:28;0.10;99.90
15426;DHT22;7812;50.072;7.036;2022-12-11T07:28:56;0.10;99.90
15426;DHT22;7812;50.072;7.036;2022-12-11T07:31:24;0.10;99.90
15426;DHT22;7812;50.072;7.036;2022-12-11T07:33:58;-0.10;99.90
15426;DHT22;7812;50.072;7.036;2022-12-11T07:36:24;-0.20;99.90
15426;DHT22;7812;50.072;7.036;2022-12-11T07:38:50;-0.20;99.90
15426;DHT22;7812;50.072;7.036;2022-12-11T07:41:16;-0.20;99.90
15426;DHT22;7812;50.072;7.036;2022-12-11T07:43:42;-0.20;99.90
15426;DHT22;7812;50.072;7.036;2022-12-11T07:46:11;-0.20;99.90
15426;DHT22;7812;50.072;7.036;2022-12-11T07:48:39;-0.30;99.90
15426;DHT22;7812;50.072;7.036;2022-12-11T07:51:25;-0.20;99.90
15426;DHT22;7812;50.072;7.036;2022-12-11T07:53:56;-0.20;99.90
15426;DHT22;7812;50.072;7.036;2022-12-11T07:56:22;-0.20;99.90
15426;DHT22;7812;50.072;7.036;2022-12-11T07:58:48;0.00;99.90
15426;DHT22;7812;50.072;7.036;2022-12-11T08:01:18;0.10;99.90
15426;DHT22;7812;50.072;7.036;2022-12-11T08:03:44;0.10;99.90
15426;DHT22;7812;50.072;7.036;2022-12-11T08:06:10;0.10;99.90
15426;DHT22;7812;50.072;7.036;2022-12-11T08:08:36;0.00;99.90
15426;DHT22;7812;50.072;7.036;2022-12-11T08:11:03;-0.10;99.90
15426;DHT22;7812;50.072;7.036;2022-12-11T08:13:29;0.00;99.90
15426;DHT22;7812;50.072;7.036;2022-12-11T08:15:55;0.00;99.90
15426;DHT22;7812;50.072;7.036;2022-12-11T08:18:20;0.00;99.90
15426;DHT22;7812;50.072;7.036;2022-12-11T08:20:46;-0.10;99.90
15426;DHT22;7812;50.072;7.036;2022-12-11T08:23:12;-0.10;99.90
15426;DHT22;7812;50.072;7.036;2022-12-11T08:25:37;0.00;99.90
15426;DHT22;7812;50.072;7.036;2022-12-11T08:28:04;0.00;99.90
15426;DHT22;7812;50.072;7.036;2022-12-11T08:30:29;0.00;99.90
15426;DHT22;7812;50.072;7.036;2022-12-11T08:32:56;0.00;99.90
15426;DHT22;7812;50.072;7.036;2022-12-11T08:35:22;0.20;99.90
15426;DHT22;7812;50.072;7.036;2022-12-11T08:37:47;0.20;99.90
15426;DHT22;7812;50.072;7.036;2022-12-11T08:40:13;0.20;99.90
15426;DHT22;7812;50.072;7.036;2022-12-11T08:42:39;0.30;99.90
15426;DHT22;7812;50.072;7.036;2022-12-11T08:45:05;0.30;99.90
15426;DHT22;7812;50.072;7.036;2022-12-11T08:47:31;0.20;99.90
15426;DHT22;7812;50.072;7.036;2022-12-11T08:49:56;0.30;99.90
15426;DHT22;7812;50.072;7.036;2022-12-11T08:52:22;0.40;99.90
15426;DHT22;7812;50.072;7.036;2022-12-11T08:54:48;0.40;99.90
15426;DHT22;7812;50.072;7.036;2022-12-11T08:57:14;0.30;99.90
15426;DHT22;7812;50.072;7.036;2022-12-11T08:59:40;0.30;99.90
15426;DHT22;7812;50.072;7.036;2022-12-11T09:02:05;0.40;99.90
15426;DHT22;7812;50.072;7.036;2022-12-11T09:04:31;0.50;99.90
15426;DHT22;7812;50.072;7.036;2022-12-11T09:06:57;0.50;99.90
15426;DHT22;7812;50.072;7.036;2022-12-11T09:09:23;0.50;99.90
15426;DHT22;7812;50.072;7.036;2022-12-11T09:11:49;0.50;99.90
15426;DHT22;7812;50.072;7.036;2022-12-11T09:14:14;0.30;99.90
15426;DHT22;7812;50.072;7.036;2022-12-11T09:16:41;0.10;99.90
15426;DHT22;7812;50.072;7.036;2022-12-11T09:19:10;0.00;99.90
15426;DHT22;7812;50.072;7.036;2022-12-11T09:21:37;0.10;99.90
15426;DHT22;7812;50.072;7.036;2022-12-11T09:24:07;0.20;99.90
15426;DHT22;7812;50.072;7.036;2022-12-11T09:26:33;0.10;99.90
15426;DHT22;7812;50.072;7.036;2022-12-11T09:29:02;0.00;99.90
15426;DHT22;7812;50.072;7.036;2022-12-11T09:31:30;0.00;99.90
15426;DHT22;7812;50.072;7.036;2022-12-11T09:34:05;0.10;99.90
15426;DHT22;7812;50.072;7.036;2022-12-11T09:36:31;0.00;99.90
15426;DHT22;7812;50.072;7.036;2022-12-11T09:39:01;-0.10;99.90
15426;DHT22;7812;50.072;7.036;2022-12-11T09:46:49;0.10;99.90
15426;DHT22;7812;50.072;7.036;2022-12-11T09:49:27;0.10;99.90
15426;DHT22;7812;50.072;7.036;2022-12-11T09:52:13;-0.10;99.90
15426;DHT22;7812;50.072;7.036;2022-12-11T09:54:56;-0.10;99.90
15426;DHT22;7812;50.072;7.036;2022-12-11T10:00:11;0.00;99.90
15426;DHT22;7812;50.072;7.036;2022-12-11T10:13:56;0.20;99.90
15426;DHT22;7812;50.072;7.036;2022-12-11T10:16:35;0.30;99.90
15426;DHT22;7812;50.072;7.036;2022-12-11T10:19:03;0.30;99.90
15426;DHT22;7812;50.072;7.036;2022-12-11T10:21:37;0.30;99.90
15426;DHT22;7812;50.072;7.036;2022-12-11T10:24:08;0.10;99.90
15426;DHT22;7812;50.072;7.036;2022-12-11T10:26:38;-0.10;99.90
15426;DHT22;7812;50.072;7.036;2022-12-11T10:29:11;-0.20;99.90
15426;DHT22;7812;50.072;7.036;2022-12-11T10:34:17;0.00;99.90
15426;DHT22;7812;50.072;7.036;2022-12-11T10:36:45;0.00;99.90
15426;DHT22;7812;50.072;7.036;2022-12-11T10:39:17;0.10;99.90
15426;DHT22;7812;50.072;7.036;2022-12-11T10:41:46;0.20;99.90
15426;DHT22;7812;50.072;7.036;2022-12-11T10:46:47;0.50;99.90
15426;DHT22;7812;50.072;7.036;2022-12-11T10:49:30;0.60;99.90
15426;DHT22;7812;50.072;7.036;2022-12-11T10:51:56;0.60;99.90
15426;DHT22;7812;50.072;7.036;2022-12-11T10:56:58;-0.10;99.90
15426;DHT22;7812;50.072;7.036;2022-12-11T10:59:43;-0.10;99.90
15426;DHT22;7812;50.072;7.036;2022-12-11T11:02:29;-0.20;99.90
15426;DHT22;7812;50.072;7.036;2022-12-11T11:05:00;-0.20;99.90
15426;DHT22;7812;50.072;7.036;2022-12-11T11:07:34;0.00;99.90
15426;DHT22;7812;50.072;7.036;2022-12-11T11:12:43;0.20;99.90
15426;DHT22;7812;50.072;7.036;2022-12-11T11:17:47;0.40;99.90
15426;DHT22;7812;50.072;7.036;2022-12-11T11:20:17;0.60;99.90
15426;DHT22;7812;50.072;7.036;2022-12-11T11:22:46;0.60;99.90
15426;DHT22;7812;50.072;7.036;2022-12-11T11:25:24;0.70;99.90
15426;DHT22;7812;50.072;7.036;2022-12-11T11:28:18;0.70;99.90
15426;DHT22;7812;50.072;7.036;2022-12-11T11:33:23;0.80;99.90
15426;DHT22;7812;50.072;7.036;2022-12-11T11:35:59;0.90;99.90
15426;DHT22;7812;50.072;7.036;2022-12-11T11:38:35;1.10;99.90
15426;DHT22;7812;50.072;7.036;2022-12-11T11:41:26;1.20;99.90
15426;DHT22;7812;50.072;7.036;2022-12-11T11:43:59;1.10;99.90
15426;DHT22;7812;50.072;7.036;2022-12-11T11:49:23;0.70;99.90
15426;DHT22;7812;50.072;7.036;2022-12-11T11:52:13;0.60;99.90
15426;DHT22;7812;50.072;7.036;2022-12-11T11:54:51;0.80;99.90
15426;DHT22;7812;50.072;7.036;2022-12-11T11:57:36;0.90;99.90
15426;DHT22;7812;50.072;7.036;2022-12-11T12:00:22;1.10;99.90
15426;DHT22;7812;50.072;7.036;2022-12-11T12:02:52;1.30;99.90
15426;DHT22;7812;50.072;7.036;2022-12-11T12:05:24;1.20;99.90
15426;DHT22;7812;50.072;7.036;2022-12-11T12:08:13;1.30;99.90
15426;DHT22;7812;50.072;7.036;2022-12-11T12:16:51;1.20;99.90
15426;DHT22;7812;50.072;7.036;2022-12-11T12:30:19;1.20;99.90
15426;DHT22;7812;50.072;7.036;2022-12-11T12:38:51;1.30;99.90
15426;DHT22;7812;50.072;7.036;2022-12-11T12:41:41;1.30;99.90
15426;DHT22;7812;50.072;7.036;2022-12-11T12:44:14;1.20;99.90
15426;DHT22;7812;50.072;7.036;2022-12-11T12:49:41;0.90;99.90
15426;DHT22;7812;50.072;7.036;2022-12-11T12:52:40;0.90;99.90
15426;DHT22;7812;50.072;7.036;2022-12-11T12:57:41;0.80;99.90
15426;DHT22;7812;50.072;7.036;2022-12-11T13:00:09;1.00;99.90
15426;DHT22;7812;50.072;7.036;2022-12-11T13:02:47;1.00;99.90
15426;DHT22;7812;50.072;7.036;2022-12-11T13:05:33;1.00;99.90
15426;DHT22;7812;50.072;7.036;2022-12-11T13:08:04;1.20;99.90
15426;DHT22;7812;50.072;7.036;2022-12-11T13:10:41;1.20;99.90
15426;DHT22;7812;50.072;7.036;2022-12-11T13:13:33;1.20;99.90
15426;DHT22;7812;50.072;7.036;2022-12-11T13:18:40;1.10;99.90
15426;DHT22;7812;50.072;7.036;2022-12-11T13:24:05;1.00;99.90
15426;DHT22;7812;50.072;7.036;2022-12-11T13:26:36;1.00;99.90
15426;DHT22;7812;50.072;7.036;2022-12-11T13:29:02;0.90;99.90
15426;DHT22;7812;50.072;7.036;2022-12-11T13:31:34;1.00;99.90
15426;DHT22;7812;50.072;7.036;2022-12-11T13:34:16;1.00;99.90
15426;DHT22;7812;50.072;7.036;2022-12-11T13:36:50;1.00;99.90
15426;DHT22;7812;50.072;7.036;2022-12-11T13:41:47;1.10;99.90
15426;DHT22;7812;50.072;7.036;2022-12-11T13:44:19;1.00;99.90
15426;DHT22;7812;50.072;7.036;2022-12-11T13:46:45;1.00;99.90
15426;DHT22;7812;50.072;7.036;2022-12-11T13:49:23;0.90;99.90
15426;DHT22;7812;50.072;7.036;2022-12-11T13:52:17;0.90;99.90
15426;DHT22;7812;50.072;7.036;2022-12-11T13:54:51;0.90;99.90
15426;DHT22;7812;50.072;7.036;2022-12-11T13:57:20;1.00;99.90
15426;DHT22;7812;50.072;7.036;2022-12-11T13:59:52;0.90;99.90
15426;DHT22;7812;50.072;7.036;2022-12-11T14:02:23;1.00;99.90
15426;DHT22;7812;50.072;7.036;2022-12-11T14:04:53;1.00;99.90
15426;DHT22;7812;50.072;7.036;2022-12-11T14:07:28;1.10;99.90
15426;DHT22;7812;50.072;7.036;2022-12-11T14:10:01;1.00;99.90
15426;DHT22;7812;50.072;7.036;2022-12-11T14:12:28;0.90;99.90
15426;DHT22;7812;50.072;7.036;2022-12-11T14:14:56;1.00;99.90
15426;DHT22;7812;50.072;7.036;2022-12-11T14:17:28;1.00;99.90
15426;DHT22;7812;50.072;7.036;2022-12-11T14:19:57;1.10;99.90
15426;DHT22;7812;50.072;7.036;2022-12-11T14:22:27;1.00;99.90
15426;DHT22;7812;50.072;7.036;2022-12-11T14:24:59;1.00;99.90
15426;DHT22;7812;50.072;7.036;2022-12-11T14:27:27;1.10;99.90
15426;DHT22;7812;50.072;7.036;2022-12-11T14:29:53;1.10;99.90
15426;DHT22;7812;50.072;7.036;2022-12-11T14:32:33;1.20;99.90
15426;DHT22;7812;50.072;7.036;2022-12-11T14:35:04;1.20;99.90
15426;DHT22;7812;50.072;7.036;2022-12-11T14:37:31;1.00;99.90
15426;DHT22;7812;50.072;7.036;2022-12-11T14:40:04;1.10;99.90
15426;DHT22;7812;50.072;7.036;2022-12-11T14:42:36;1.10;99.90
15426;DHT22;7812;50.072;7.036;2022-12-11T14:45:11;1.10;99.90
15426;DHT22;7812;50.072;7.036;2022-12-11T14:47:42;1.00;99.90
15426;DHT22;7812;50.072;7.036;2022-12-11T14:50:12;1.00;99.90
15426;DHT22;7812;50.072;7.036;2022-12-11T14:52:47;1.00;99.90
15426;DHT22;7812;50.072;7.036;2022-12-11T14:55:29;1.10;99.90
15426;DHT22;7812;50.072;7.036;2022-12-11T14:57:58;1.00;99.90
15426;DHT22;7812;50.072;7.036;2022-12-11T15:00:31;1.00;99.90
15426;DHT22;7812;50.072;7.036;2022-12-11T15:03:01;1.00;99.90
15426;DHT22;7812;50.072;7.036;2022-12-11T15:05:29;1.10;99.90
15426;DHT22;7812;50.072;7.036;2022-12-11T15:13:27;0.90;99.90
15426;DHT22;7812;50.072;7.036;2022-12-11T15:15:54;0.90;99.90
15426;DHT22;7812;50.072;7.036;2022-12-11T15:18:28;0.80;99.90
15426;DHT22;7812;50.072;7.036;2022-12-11T15:21:00;0.90;99.90
15426;DHT22;7812;50.072;7.036;2022-12-11T15:23:28;0.90;99.90
15426;DHT22;7812;50.072;7.036;2022-12-11T15:25:56;0.90;99.90
15426;DHT22;7812;50.072;7.036;2022-12-11T15:28:36;0.80;99.90
15426;DHT22;7812;50.072;7.036;2022-12-11T15:31:05;0.70;99.90
15426;DHT22;7812;50.072;7.036;2022-12-11T15:33:31;0.80;99.90
15426;DHT22;7812;50.072;7.036;2022-12-11T15:36:01;0.80;99.90
15426;DHT22;7812;50.072;7.036;2022-12-11T15:38:33;0.70;99.90
15426;DHT22;7812;50.072;7.036;2022-12-11T15:41:00;0.70;99.90
15426;DHT22;7812;50.072;7.036;2022-12-11T15:43:27;0.70;99.90
15426;DHT22;7812;50.072;7.036;2022-12-11T15:45:56;0.70;99.90
15426;DHT22;7812;50.072;7.036;2022-12-11T15:48:22;0.80;99.90
15426;DHT22;7812;50.072;7.036;2022-12-11T15:50:48;0.80;99.90
15426;DHT22;7812;50.072;7.036;2022-12-11T15:53:14;0.70;99.90
15426;DHT22;7812;50.072;7.036;2022-12-11T15:55:39;0.70;99.90
15426;DHT22;7812;50.072;7.036;2022-12-11T15:58:07;0.70;99.90
15426;DHT22;7812;50.072;7.036;2022-12-11T16:00:36;0.70;99.90
15426;DHT22;7812;50.072;7.036;2022-12-11T16:03:02;0.60;99.90
15426;DHT22;7812;50.072;7.036;2022-12-11T16:05:28;0.60;99.90
15426;DHT22;7812;50.072;7.036;2022-12-11T16:07:54;0.60;99.90
15426;DHT22;7812;50.072;7.036;2022-12-11T16:10:24;0.60;99.90
15426;DHT22;7812;50.072;7.036;2022-12-11T16:12:50;0.60;99.90
15426;DHT22;7812;50.072;7.036;2022-12-11T16:15:15;0.60;99.90
15426;DHT22;7812;50.072;7.036;2022-12-11T16:17:41;0.60;99.90
15426;DHT22;7812;50.072;7.036;2022-12-11T16:20:09;0.60;99.90
15426;DHT22;7812;50.072;7.036;2022-12-11T16:22:35;0.50;99.90
15426;DHT22;7812;50.072;7.036;2022-12-11T16:25:01;0.40;99.90
15426;DHT22;7812;50.072;7.036;2022-12-11T16:27:27;0.40;99.90
15426;DHT22;7812;50.072;7.036;2022-12-11T16:29:52;0.30;99.90
15426;DHT22;7812;50.072;7.036;2022-12-11T16:32:18;0.30;99.90
15426;DHT22;7812;50.072;7.036;2022-12-11T16:34:44;0.30;99.90
15426;DHT22;7812;50.072;7.036;2022-12-11T16:37:10;0.40;99.90
15426;DHT22;7812;50.072;7.036;2022-12-11T16:39:37;0.40;99.90
15426;DHT22;7812;50.072;7.036;2022-12-11T16:42:04;0.40;99.90
15426;DHT22;7812;50.072;7.036;2022-12-11T16:44:30;0.40;99.90
15426;DHT22;7812;50.072;7.036;2022-12-11T16:46:55;0.50;99.90
15426;DHT22;7812;50.072;7.036;2022-12-11T16:49:22;0.60;99.90
15426;DHT22;7812;50.072;7.036;2022-12-11T16:51:48;0.60;99.90
15426;DHT22;7812;50.072;7.036;2022-12-11T16:54:14;0.50;99.90
15426;DHT22;7812;50.072;7.036;2022-12-11T16:56:40;0.60;99.90
15426;DHT22;7812;50.072;7.036;2022-12-11T16:59:06;0.70;99.90
15426;DHT22;7812;50.072;7.036;2022-12-11T17:01:32;0.80;99.90
15426;DHT22;7812;50.072;7.036;2022-12-11T17:03:58;0.80;99.90
15426;DHT22;7812;50.072;7.036;2022-12-11T17:06:25;0.80;99.90
15426;DHT22;7812;50.072;7.036;2022-12-11T17:08:51;0.80;99.90
15426;DHT22;7812;50.072;7.036;2022-12-11T17:11:19;0.90;99.90
15426;DHT22;7812;50.072;7.036;2022-12-11T17:13:46;0.90;99.90
15426;DHT22;7812;50.072;7.036;2022-12-11T17:16:14;1.00;99.90
15426;DHT22;7812;50.072;7.036;2022-12-11T17:18:41;1.00;99.90
15426;DHT22;7812;50.072;7.036;2022-12-11T17:21:17;1.10;99.90
15426;DHT22;7812;50.072;7.036;2022-12-11T17:23:44;1.10;99.90
15426;DHT22;7812;50.072;7.036;2022-12-11T17:26:10;1.20;99.90
15426;DHT22;7812;50.072;7.036;2022-12-11T17:28:37;1.20;99.90
15426;DHT22;7812;50.072;7.036;2022-12-11T17:31:08;1.20;99.90
15426;DHT22;7812;50.072;7.036;2022-12-11T17:33:34;1.20;99.90
15426;DHT22;7812;50.072;7.036;2022-12-11T17:36:02;1.20;99.90
15426;DHT22;7812;50.072;7.036;2022-12-11T17:38:29;1.30;99.90
15426;DHT22;7812;50.072;7.036;2022-12-11T17:40:54;1.20;99.90
15426;DHT22;7812;50.072;7.036;2022-12-11T17:43:20;1.10;99.90
15426;DHT22;7812;50.072;7.036;2022-12-11T17:45:48;1.30;99.90
15426;DHT22;7812;50.072;7.036;2022-12-11T17:48:15;1.40;99.90
15426;DHT22;7812;50.072;7.036;2022-12-11T17:50:43;1.40;99.90
15426;DHT22;7812;50.072;7.036;2022-12-11T17:53:09;1.40;99.90
15426;DHT22;7812;50.072;7.036;2022-12-11T17:55:37;1.20;99.90
15426;DHT22;7812;50.072;7.036;2022-12-11T17:58:11;1.20;99.90